Bladenboro, NC (28320)

11:27 AM EDT on October 25, 2014 (GMT -0400)
CCSkywatch | Change Station
CLOSE
Current Station
Personal Weather Station
Location: Whiteville, NC
Elevation: 91 ft
Nearby Weather Stations

Elev 91 ft 34.41 °N, 78.75 °W | Updated 5 seconds ago

Clear
Clear
64.1 °F
Feels Like 64.1 °F
N
1.0
Wind Variable Wind from NW
Gusts 4.0 mph

Today
High -- | Low -- °F
--% Chance of Precip.
Yesterday
High -- | Low -- °F
Precip. -- in
7:29 AM 6:28 PM
Waxing Crescent, 3% visible
Pressure 30.01 in
Visibility 10.0 miles
Clouds Clear
Dew Point 51 °F
Humidity 63%
Rainfall 0.00 in
Snow Depth Not available.
UV 4 out of 12
Pollen 3.50 out of 12
Air Quality Not available.
Flu Activity Local Activity
METAR KLBT 251454Z AUTO 33004KT 10SM CLR 18/07 A3001 RMK AO2 SLP161 T01780067 50001

More Conditions Fewer Conditions

Pressure 30.01 in
Visibility 10.0 miles
Clouds Clear
Dew Point 51 °F
Humidity 63%
Rainfall 0.00 in
Snow Depth Not available.
UV 4 out of 12
Pollen 3.50 out of 12
Air Quality Not available.
Flu Activity Local Activity
METAR KLBT 251454Z AUTO 33004KT 10SM CLR 18/07 A3001 RMK AO2 SLP161 T01780067 50001

More Conditions Fewer Conditions

10-Day Weather Forecast

Almanac

Astronomy

Oct. 25, 2014 Rise Set
Actual Time 7:29 AM EDT 6:28 PM EDT
Civil Twilight 7:03 AM EDT 6:54 PM EDT
Nautical Twilight 6:33 AM EDT 7:23 PM EDT
Astronomical Twilight 6:04 AM EDT 7:53 PM EDT
Moon 9:03 AM EDT 7:54 PM EDT
Length of Visible Light 11h 51m
Length of Day
10h 59m
Tomorrow will be 1m 59s shorter.
Waxing Crescent, 3% of the Moon is Illuminated
Today
Waxing Crescent
Oct 30
First Quarter
Nov 6
Full
Nov 14
Last Quarter
Nov 22
New

Today's Extremes

State Highs State Lows

Community

WunderPhotos

Upload Photos

1,764,876 photos uploaded!

Nearby

Snow Depth

Station Depth Elevation
No new snow has been reported.

Earthquake Activity

City Distance Mag. Time & Date
No recent earthquake activity has been reported nearby.
Minimum magnitude displayed is 2.5.

Coastal Water Temperatures

Place Temperature
No Stations Reporting

Nearby Weather Stations